createdAt,value
2019-02-28T00:03:39.846Z,10.68
2019-02-28T00:07:44.418Z,10.65
2019-02-28T00:11:48.784Z,9.98
2019-02-28T00:15:53.507Z,10.60
2019-02-28T00:19:58.666Z,20.62
2019-02-28T00:24:03.949Z,10.75
2019-02-28T00:28:08.921Z,10.15
2019-02-28T00:32:13.951Z,9.90
2019-02-28T00:36:19.245Z,9.43
2019-02-28T00:40:24.372Z,8.23
2019-02-28T00:44:31.300Z,8.85
2019-02-28T00:48:35.609Z,8.65
2019-02-28T00:52:40.387Z,8.10
2019-02-28T00:56:45.136Z,7.53
2019-02-28T01:00:49.980Z,7.35
2019-02-28T01:04:54.402Z,7.50
2019-02-28T01:08:59.547Z,7.20
2019-02-28T01:13:06.049Z,7.20
2019-02-28T01:17:10.478Z,7.30
2019-02-28T01:21:14.909Z,7.10
2019-02-28T01:25:19.749Z,6.62
2019-02-28T01:29:24.514Z,6.85
2019-02-28T01:33:29.546Z,7.05
2019-02-28T01:37:34.473Z,6.58
2019-02-28T01:41:38.885Z,7.28
2019-02-28T01:45:44.566Z,7.20
2019-02-28T01:49:49.307Z,7.03
2019-02-28T01:53:54.388Z,7.15
2019-02-28T01:57:59.523Z,7.53
2019-02-28T02:02:06.678Z,7.60
2019-02-28T02:06:10.289Z,7.45
2019-02-28T02:10:21.661Z,7.72
2019-02-28T02:14:26.864Z,8.25
2019-02-28T02:18:31.632Z,7.60
2019-02-28T02:22:40.584Z,8.98
2019-02-28T02:26:45.954Z,8.33
2019-02-28T02:30:52.027Z,8.45
2019-02-28T02:34:56.911Z,8.63
2019-02-28T02:39:01.467Z,8.75
2019-02-28T02:43:08.168Z,8.38
2019-02-28T02:47:14.109Z,8.88
2019-02-28T02:51:19.235Z,8.75
2019-02-28T02:55:27.778Z,9.90
2019-02-28T02:59:37.500Z,9.78
2019-02-28T03:03:42.823Z,10.15
2019-02-28T03:07:44.613Z,10.60
2019-02-28T03:11:49.430Z,10.28
2019-02-28T03:15:53.872Z,10.70
2019-02-28T03:19:58.890Z,11.15
2019-02-28T03:24:03.648Z,11.57
2019-02-28T03:28:08.384Z,10.88
2019-02-28T03:32:13.580Z,12.35
2019-02-28T03:36:17.997Z,12.58
2019-02-28T03:40:22.378Z,12.03
2019-02-28T03:44:27.452Z,12.23
2019-02-28T03:48:35.998Z,12.78
2019-02-28T03:52:43.825Z,12.30
2019-02-28T03:56:51.243Z,12.63
2019-02-28T04:00:50.986Z,12.40
2019-02-28T04:04:55.618Z,12.18
2019-02-28T04:09:07.016Z,12.98
2019-02-28T04:13:08.374Z,12.53
2019-02-28T04:17:13.331Z,12.95
2019-02-28T04:21:17.811Z,14.33
2019-02-28T04:25:24.238Z,14.05
2019-02-28T04:29:31.141Z,14.63
2019-02-28T04:33:41.127Z,15.05
2019-02-28T04:37:47.308Z,14.40
2019-02-28T04:41:52.326Z,15.48
2019-02-28T04:45:57.651Z,16.62
2019-02-28T04:50:02.916Z,17.80
2019-02-28T04:54:07.405Z,18.45
2019-02-28T04:58:12.165Z,18.70
2019-02-28T05:02:19.948Z,18.23
2019-02-28T05:06:23.961Z,19.27
2019-02-28T05:10:28.815Z,20.20
2019-02-28T05:14:33.275Z,19.87
2019-02-28T05:18:38.030Z,20.62
2019-02-28T05:22:42.525Z,18.10
2019-02-28T05:26:47.199Z,20.35
2019-02-28T05:30:53.689Z,20.65
2019-02-28T05:34:58.695Z,21.15
2019-02-28T05:39:05.161Z,21.10
2019-02-28T05:43:09.629Z,21.57
2019-02-28T05:47:14.439Z,21.35
2019-02-28T05:51:19.103Z,21.70
2019-02-28T05:55:25.609Z,22.10
2019-02-28T05:59:30.297Z,23.38
2019-02-28T06:03:34.781Z,22.93
2019-02-28T06:07:39.399Z,23.00
2019-02-28T06:11:49.001Z,24.10
2019-02-28T06:15:53.463Z,23.67
2019-02-28T06:19:58.273Z,23.98
2019-02-28T06:24:03.028Z,23.87
2019-02-28T06:28:07.984Z,25.90
2019-02-28T06:32:13.611Z,26.50
2019-02-28T06:36:18.758Z,27.73
2019-02-28T06:40:23.239Z,27.07
2019-02-28T06:44:28.157Z,29.57
2019-02-28T06:48:32.831Z,26.05
2019-02-28T06:52:38.776Z,27.37
2019-02-28T06:56:43.397Z,29.10
2019-02-28T07:00:50.427Z,28.50
2019-02-28T07:04:55.135Z,28.20
2019-02-28T07:09:02.528Z,29.30
2019-02-28T07:13:08.028Z,30.60
2019-02-28T07:17:12.392Z,31.62
2019-02-28T07:21:17.153Z,32.25
2019-02-28T07:25:21.816Z,31.45
2019-02-28T07:29:26.285Z,33.05
2019-02-28T07:33:31.668Z,33.02
2019-02-28T07:37:36.472Z,33.28
2019-02-28T07:41:41.458Z,35.65
2019-02-28T07:45:47.206Z,34.75
2019-02-28T07:49:53.238Z,34.67
2019-02-28T07:53:57.968Z,36.55
2019-02-28T07:58:02.359Z,36.85
2019-02-28T08:02:06.971Z,36.08
2019-02-28T08:06:12.194Z,39.30
2019-02-28T08:10:18.406Z,38.60
2019-02-28T08:14:22.834Z,38.53
2019-02-28T08:18:27.337Z,38.42
2019-02-28T08:22:32.713Z,39.13
2019-02-28T08:26:37.344Z,41.00
2019-02-28T08:30:41.751Z,39.23
2019-02-28T08:34:46.926Z,41.40
2019-02-28T08:38:51.911Z,39.42
2019-02-28T08:42:57.895Z,41.90
2019-02-28T08:47:03.518Z,41.30
2019-02-28T08:51:08.225Z,40.00
2019-02-28T08:55:14.121Z,39.65
2019-02-28T08:59:21.846Z,40.05
2019-02-28T09:03:27.407Z,38.15
2019-02-28T09:07:31.793Z,40.33
2019-02-28T09:11:37.090Z,38.08
2019-02-28T09:15:41.672Z,38.98
2019-02-28T09:19:46.450Z,40.12
2019-02-28T09:23:52.372Z,38.70
2019-02-28T09:27:57.210Z,40.92
2019-02-28T09:32:01.582Z,40.08
2019-02-28T09:36:06.204Z,41.73
2019-02-28T09:40:12.020Z,41.70
2019-02-28T09:44:16.494Z,39.65
2019-02-28T09:48:21.350Z,38.92
2019-02-28T09:52:26.206Z,38.67
2019-02-28T09:56:30.776Z,39.42
2019-02-28T10:00:36.542Z,41.13
2019-02-28T10:04:41.665Z,40.70
2019-02-28T10:08:46.632Z,39.70
2019-02-28T10:12:51.280Z,38.67
2019-02-28T10:16:56.338Z,38.13
2019-02-28T10:21:02.746Z,39.58
2019-02-28T10:25:08.139Z,37.45
2019-02-28T10:29:13.891Z,36.20
2019-02-28T10:33:18.487Z,36.50
2019-02-28T10:37:23.600Z,36.08
2019-02-28T10:41:31.127Z,37.58
2019-02-28T10:45:38.344Z,36.00
2019-02-28T10:49:44.821Z,36.40
2019-02-28T10:53:49.923Z,36.90
2019-02-28T10:57:54.390Z,37.33
2019-02-28T11:01:59.591Z,36.50
2019-02-28T11:06:04.254Z,40.78
2019-02-28T11:10:09.327Z,38.78
2019-02-28T11:14:14.548Z,37.85
2019-02-28T11:18:19.041Z,36.93
2019-02-28T11:22:23.839Z,36.03
2019-02-28T11:26:30.411Z,36.17
2019-02-28T11:30:37.392Z,35.63
2019-02-28T11:34:41.811Z,36.60
2019-02-28T11:38:46.571Z,35.83
2019-02-28T11:42:51.289Z,36.35
2019-02-28T11:46:57.028Z,35.20
2019-02-28T11:51:01.859Z,37.45
2019-02-28T11:55:07.095Z,38.05
2019-02-28T11:59:11.760Z,37.60
2019-02-28T12:03:17.468Z,36.03
2019-02-28T12:07:22.415Z,36.35
2019-02-28T12:11:27.836Z,37.60
2019-02-28T12:15:32.282Z,37.73
2019-02-28T12:19:36.784Z,37.55
2019-02-28T12:23:41.712Z,35.68
2019-02-28T12:27:46.533Z,35.80
2019-02-28T12:31:51.393Z,36.58
2019-02-28T12:35:55.962Z,37.30
2019-02-28T12:40:00.669Z,36.08
2019-02-28T12:44:05.881Z,36.68
2019-02-28T12:48:13.704Z,35.90
2019-02-28T12:52:16.923Z,35.65
2019-02-28T12:56:21.371Z,36.83
2019-02-28T13:00:28.895Z,34.67
2019-02-28T13:04:35.873Z,36.83
2019-02-28T13:08:41.757Z,36.28
2019-02-28T13:12:48.944Z,36.65
2019-02-28T13:16:54.608Z,36.08
2019-02-28T13:20:59.678Z,36.98
2019-02-28T13:25:04.848Z,35.10
2019-02-28T13:29:10.815Z,34.75
2019-02-28T13:33:18.368Z,35.88
2019-02-28T13:37:23.188Z,33.60
2019-02-28T13:41:27.965Z,35.58
2019-02-28T13:45:33.108Z,36.13
2019-02-28T13:49:38.538Z,36.35
2019-02-28T13:53:44.002Z,36.05
2019-02-28T13:57:48.665Z,37.00
2019-02-28T14:01:55.601Z,35.65
2019-02-28T14:06:00.878Z,36.70
2019-02-28T14:10:06.405Z,35.48
2019-02-28T14:14:11.487Z,36.75
2019-02-28T14:18:17.542Z,34.45
2019-02-28T14:22:22.172Z,35.98
2019-02-28T14:26:27.935Z,33.80
2019-02-28T14:30:33.102Z,36.33
2019-02-28T14:34:37.723Z,37.15
2019-02-28T14:38:42.191Z,38.48
2019-02-28T14:42:47.110Z,38.15
2019-02-28T14:46:53.333Z,37.33
2019-02-28T14:50:59.131Z,34.55
2019-02-28T14:55:03.827Z,39.15
2019-02-28T14:59:08.462Z,36.95
2019-02-28T15:03:14.890Z,39.98
2019-02-28T15:07:20.263Z,37.55
2019-02-28T15:11:26.107Z,36.88
2019-02-28T15:15:30.711Z,37.33
2019-02-28T15:19:35.123Z,39.63
2019-02-28T15:23:39.677Z,39.90
2019-02-28T15:27:44.183Z,41.60
2019-02-28T15:31:49.464Z,41.80
2019-02-28T15:35:54.375Z,42.17
2019-02-28T15:39:59.088Z,40.98
2019-02-28T15:44:04.246Z,42.05
2019-02-28T15:48:09.152Z,40.05
2019-02-28T15:52:13.945Z,41.40
2019-02-28T15:56:19.924Z,43.42
2019-02-28T16:00:28.468Z,41.92
2019-02-28T16:04:32.947Z,43.83
2019-02-28T16:08:41.978Z,43.80
2019-02-28T16:12:46.575Z,45.28
2019-02-28T16:16:52.676Z,46.30
2019-02-28T16:20:57.746Z,45.63
2019-02-28T16:25:02.972Z,47.05
2019-02-28T16:29:07.722Z,48.55
2019-02-28T16:33:12.256Z,48.58
2019-02-28T16:37:18.779Z,51.20
2019-02-28T16:41:23.424Z,52.08
2019-02-28T16:45:40.785Z,52.65
2019-02-28T16:49:46.384Z,50.28
2019-02-28T16:53:53.120Z,50.75
2019-02-28T16:57:57.737Z,50.48
2019-02-28T17:02:02.386Z,48.80
2019-02-28T17:06:08.174Z,51.20
2019-02-28T17:10:15.795Z,50.05
2019-02-28T17:14:20.240Z,47.38
2019-02-28T17:18:26.166Z,49.65
2019-02-28T17:22:30.975Z,49.60
2019-02-28T17:26:49.611Z,48.78
2019-02-28T17:31:13.804Z,47.40
2019-02-28T17:35:22.164Z,49.63
2019-02-28T17:39:27.171Z,49.18
2019-02-28T17:43:31.602Z,47.38
2019-02-28T17:48:22.252Z,49.77
2019-02-28T17:52:33.842Z,50.40
2019-02-28T17:57:27.711Z,46.95
2019-02-28T18:01:49.399Z,45.85
2019-02-28T18:06:36.473Z,47.67
2019-02-28T18:11:17.419Z,49.05
2019-02-28T18:15:35.031Z,45.50
2019-02-28T18:19:55.196Z,42.75
2019-02-28T18:24:29.611Z,45.55
2019-02-28T18:29:06.127Z,44.58
2019-02-28T18:33:11.231Z,44.88
2019-02-28T18:37:16.120Z,46.77
2019-02-28T18:41:21.680Z,44.90
2019-02-28T18:45:27.190Z,48.80
2019-02-28T18:49:31.940Z,47.13
2019-02-28T18:53:37.776Z,45.65
2019-02-28T18:57:42.685Z,48.08
2019-02-28T19:01:49.617Z,49.85
2019-02-28T19:05:55.389Z,47.95
2019-02-28T19:10:00.929Z,48.63
2019-02-28T19:14:07.530Z,53.38
2019-02-28T19:18:12.875Z,52.75
2019-02-28T19:22:17.635Z,48.83
2019-02-28T19:26:25.088Z,52.70
2019-02-28T19:30:35.110Z,51.48
2019-02-28T19:34:40.313Z,52.27
2019-02-28T19:38:45.438Z,51.92
2019-02-28T19:42:51.668Z,51.90
2019-02-28T19:46:56.832Z,50.98
2019-02-28T19:51:33.284Z,53.75
2019-02-28T19:56:21.862Z,52.10
2019-02-28T20:00:31.060Z,52.03
2019-02-28T20:04:39.170Z,50.20
2019-02-28T20:08:55.743Z,51.28
2019-02-28T20:13:02.693Z,51.95
2019-02-28T20:17:16.786Z,50.23
2019-02-28T20:26:24.696Z,48.63
2019-02-28T20:30:42.788Z,47.25
2019-02-28T20:35:03.247Z,46.90
2019-02-28T20:39:17.726Z,47.15
2019-02-28T20:48:14.553Z,47.98
2019-02-28T20:52:19.454Z,48.52
2019-02-28T20:56:24.192Z,48.95
2019-02-28T21:00:29.884Z,53.13
2019-02-28T21:04:36.291Z,48.05
2019-02-28T21:08:42.007Z,49.42
2019-02-28T21:12:47.240Z,51.23
2019-02-28T21:16:52.328Z,47.85
2019-02-28T21:20:57.428Z,46.28
2019-02-28T21:25:06.415Z,45.67
2019-02-28T21:29:31.091Z,44.70
2019-02-28T21:33:42.001Z,46.15
2019-02-28T21:37:53.245Z,44.48
2019-02-28T21:42:00.015Z,43.80
2019-02-28T21:46:08.355Z,42.30
2019-02-28T21:50:15.716Z,41.73
2019-02-28T21:54:21.519Z,40.52
2019-02-28T21:58:25.962Z,37.70
2019-02-28T22:02:30.816Z,38.95
2019-02-28T22:06:38.904Z,37.15
2019-02-28T22:10:46.792Z,37.85
2019-02-28T22:15:00.870Z,36.60
2019-02-28T22:19:06.022Z,35.70
2019-02-28T22:23:15.210Z,34.27
2019-02-28T22:27:39.863Z,34.18
2019-02-28T22:32:12.558Z,34.63
2019-02-28T22:36:21.469Z,34.00
2019-02-28T22:40:28.063Z,33.50
2019-02-28T22:44:33.346Z,33.75
2019-02-28T22:48:38.173Z,35.40
2019-02-28T22:52:43.386Z,33.65
2019-02-28T22:56:47.952Z,32.03
2019-02-28T23:01:10.041Z,32.85
2019-02-28T23:05:14.892Z,32.78
2019-02-28T23:09:19.625Z,32.58
2019-02-28T23:13:24.772Z,33.10
2019-02-28T23:17:30.344Z,33.18
2019-02-28T23:21:35.308Z,32.70
2019-02-28T23:25:40.069Z,33.78
2019-02-28T23:29:51.964Z,32.03
2019-02-28T23:34:01.362Z,33.40
2019-02-28T23:38:04.740Z,34.23
2019-02-28T23:42:11.384Z,30.77
2019-02-28T23:46:17.632Z,32.03
2019-02-28T23:50:22.553Z,30.65
2019-02-28T23:54:27.709Z,29.37
2019-02-28T23:58:32.281Z,29.80
